createdAt,value
2022-08-17T00:01:22.536Z,12.07
2022-08-17T00:03:52.273Z,11.27
2022-08-17T00:06:19.968Z,12.23
2022-08-17T00:08:46.037Z,12.10
2022-08-17T00:11:13.732Z,13.52
2022-08-17T00:13:42.677Z,14.30
2022-08-17T00:16:14.465Z,12.40
2022-08-17T00:19:01.382Z,12.90
2022-08-17T00:21:25.474Z,13.63
2022-08-17T00:23:49.467Z,13.23
2022-08-17T00:26:14.303Z,14.52
2022-08-17T00:28:39.828Z,14.52
2022-08-17T00:31:03.949Z,15.18
2022-08-17T00:33:32.420Z,14.73
2022-08-17T00:35:57.836Z,15.20
2022-08-17T00:38:22.800Z,13.70
2022-08-17T00:40:50.387Z,13.38
2022-08-17T00:43:20.046Z,14.85
2022-08-17T00:45:45.035Z,14.35
2022-08-17T00:48:11.536Z,15.02
2022-08-17T00:51:01.229Z,15.65
2022-08-17T00:53:26.071Z,14.30
2022-08-17T00:55:50.437Z,12.88
2022-08-17T00:58:14.406Z,13.18
2022-08-17T01:00:43.162Z,12.85
2022-08-17T01:03:11.946Z,14.07
2022-08-17T01:05:42.183Z,14.60
2022-08-17T01:08:11.348Z,14.60
2022-08-17T01:10:59.736Z,14.52
2022-08-17T01:13:28.737Z,12.68
2022-08-17T01:15:58.663Z,15.02
2022-08-17T01:18:22.587Z,14.60
2022-08-17T01:20:52.408Z,13.48
2022-08-17T01:23:20.783Z,12.20
2022-08-17T01:25:45.476Z,12.98
2022-08-17T01:28:12.946Z,13.32
2022-08-17T01:30:59.519Z,15.32
2022-08-17T01:33:23.319Z,14.68
2022-08-17T01:35:47.108Z,13.95
2022-08-17T01:38:10.796Z,13.70
2022-08-17T01:40:39.726Z,11.85
2022-08-17T01:43:10.469Z,12.07
2022-08-17T01:45:40.620Z,14.43
2022-08-17T01:48:04.673Z,13.80
2022-08-17T01:50:35.012Z,13.10
2022-08-17T01:53:14.881Z,13.48
2022-08-17T01:55:47.519Z,12.55
2022-08-17T01:58:11.433Z,12.02
2022-08-17T02:00:59.630Z,12.13
2022-08-17T02:03:19.600Z,13.00
2022-08-17T02:05:43.306Z,15.25
2022-08-17T02:08:08.453Z,12.38
2022-08-17T02:10:46.819Z,12.15
2022-08-17T02:13:11.615Z,12.32
2022-08-17T02:15:35.892Z,12.73
2022-08-17T02:17:59.650Z,15.13
2022-08-17T02:20:41.585Z,15.32
2022-08-17T02:23:09.524Z,14.68
2022-08-17T02:25:35.140Z,15.68
2022-08-17T02:28:01.018Z,14.00
2022-08-17T02:30:59.578Z,13.98
2022-08-17T02:33:10.182Z,12.75
2022-08-17T02:35:33.980Z,13.70
2022-08-17T02:37:58.120Z,12.85
2022-08-17T02:40:36.003Z,12.32
2022-08-17T02:43:02.171Z,14.60
2022-08-17T02:45:28.074Z,12.82
2022-08-17T02:47:53.120Z,13.55
2022-08-17T02:50:20.279Z,11.95
2022-08-17T02:52:47.474Z,12.27
2022-08-17T02:55:28.941Z,12.77
2022-08-17T02:57:53.247Z,13.55
2022-08-17T03:00:28.854Z,12.98
2022-08-17T03:02:53.521Z,15.10
2022-08-17T03:05:20.141Z,15.23
2022-08-17T03:07:44.106Z,14.52
2022-08-17T03:10:09.524Z,13.02
2022-08-17T03:12:39.281Z,12.20
2022-08-17T03:15:05.975Z,12.55
2022-08-17T03:17:31.250Z,13.45
2022-08-17T03:19:54.960Z,11.98
2022-08-17T03:22:35.528Z,12.52
2022-08-17T03:25:02.561Z,14.93
2022-08-17T03:27:27.735Z,14.32
2022-08-17T03:29:51.561Z,12.68
2022-08-17T03:32:17.935Z,13.75
2022-08-17T03:34:43.479Z,15.88
2022-08-17T03:37:07.266Z,14.82
2022-08-17T03:39:31.295Z,14.20
2022-08-17T03:41:55.164Z,15.65
2022-08-17T03:44:18.984Z,14.10
2022-08-17T03:47:00.059Z,19.35
2022-08-17T03:49:41.340Z,19.58
2022-08-17T03:52:24.017Z,22.52
2022-08-17T03:55:05.591Z,25.05
2022-08-17T03:57:30.257Z,20.48
2022-08-17T03:59:54.785Z,20.08
2022-08-17T04:02:22.995Z,18.52
2022-08-17T04:04:47.089Z,16.88
2022-08-17T04:07:12.669Z,16.67
2022-08-17T04:09:37.816Z,16.40
2022-08-17T04:12:04.550Z,16.42
2022-08-17T04:14:31.309Z,14.90
2022-08-17T04:16:55.308Z,15.73
2022-08-17T04:19:19.169Z,15.35
2022-08-17T04:21:43.110Z,14.57
2022-08-17T04:24:08.976Z,13.88
2022-08-17T04:26:53.232Z,13.80
2022-08-17T04:29:18.040Z,14.25
2022-08-17T04:31:41.877Z,13.93
2022-08-17T04:34:05.837Z,13.40
2022-08-17T04:36:29.748Z,13.55
2022-08-17T04:38:53.565Z,12.65
2022-08-17T04:41:36.428Z,14.48
2022-08-17T04:44:00.992Z,12.18
2022-08-17T04:46:27.735Z,11.77
2022-08-17T04:48:55.923Z,13.27
2022-08-17T04:51:24.005Z,14.02
2022-08-17T04:53:54.203Z,12.68
2022-08-17T04:56:20.369Z,13.70
2022-08-17T04:58:44.685Z,12.77
2022-08-17T05:01:09.106Z,13.50
2022-08-17T05:03:33.595Z,13.55
2022-08-17T05:05:57.598Z,12.45
2022-08-17T05:08:23.104Z,12.68
2022-08-17T05:10:47.229Z,13.38
2022-08-17T05:13:16.732Z,14.10
2022-08-17T05:15:45.143Z,13.27
2022-08-17T05:18:11.733Z,13.65
2022-08-17T05:20:37.070Z,13.70
2022-08-17T05:23:04.721Z,13.52
2022-08-17T05:25:36.173Z,13.90
2022-08-17T05:28:02.119Z,14.50
2022-08-17T05:30:28.578Z,14.48
2022-08-17T05:32:54.800Z,14.20
2022-08-17T05:35:18.841Z,14.25
2022-08-17T05:37:42.682Z,14.27
2022-08-17T05:40:08.735Z,13.85
2022-08-17T05:42:32.741Z,13.88
2022-08-17T05:44:59.576Z,14.00
2022-08-17T05:47:26.598Z,12.55
2022-08-17T05:49:50.370Z,13.10
2022-08-17T05:52:30.052Z,13.27
2022-08-17T05:55:08.150Z,12.18
2022-08-17T05:57:52.877Z,11.50
2022-08-17T06:00:26.264Z,13.75
2022-08-17T06:03:16.365Z,12.70
2022-08-17T06:06:06.195Z,11.85
2022-08-17T06:08:39.584Z,12.35
2022-08-17T06:11:13.026Z,12.90
2022-08-17T06:13:56.208Z,12.05
2022-08-17T06:16:33.309Z,11.48
2022-08-17T06:19:05.148Z,11.25
2022-08-17T06:21:34.599Z,11.68
2022-08-17T06:24:23.952Z,11.38
2022-08-17T06:26:48.077Z,11.30
2022-08-17T06:29:24.944Z,11.93
2022-08-17T06:31:49.068Z,11.35
2022-08-17T06:34:15.048Z,10.95
2022-08-17T06:36:50.914Z,11.60
2022-08-17T06:39:39.004Z,11.23
2022-08-17T06:43:00.818Z,10.60
2022-08-17T06:45:09.848Z,10.20
2022-08-17T06:47:38.933Z,9.50
2022-08-17T06:50:14.720Z,10.18
2022-08-17T06:52:49.948Z,8.63
2022-08-17T06:55:20.307Z,8.57
2022-08-17T06:57:47.695Z,7.65
2022-08-17T07:00:18.120Z,7.85
2022-08-17T07:02:52.657Z,7.70
2022-08-17T07:05:22.466Z,7.45
2022-08-17T07:08:04.672Z,7.18
2022-08-17T07:10:32.951Z,7.18
2022-08-17T07:13:02.316Z,6.75
2022-08-17T07:15:34.081Z,7.60
2022-08-17T07:17:59.755Z,6.80
2022-08-17T07:20:25.381Z,6.60
2022-08-17T07:23:00.129Z,7.38
2022-08-17T07:25:24.433Z,7.70
2022-08-17T07:27:52.599Z,6.82
2022-08-17T07:30:20.512Z,6.47
2022-08-17T07:32:48.206Z,5.50
2022-08-17T07:35:22.098Z,5.80
2022-08-17T07:37:53.208Z,5.75
2022-08-17T07:40:32.126Z,5.90
2022-08-17T07:43:26.446Z,5.75
2022-08-17T07:46:26.540Z,5.22
2022-08-17T07:48:53.616Z,4.80
2022-08-17T07:51:27.056Z,4.63
2022-08-17T07:53:52.528Z,5.10
2022-08-17T07:56:37.889Z,5.55
2022-08-17T07:59:12.244Z,5.03
2022-08-17T08:01:39.592Z,5.30
2022-08-17T08:04:59.080Z,5.38
2022-08-17T08:07:25.965Z,4.70
2022-08-17T08:10:07.652Z,4.80
2022-08-17T08:12:36.322Z,4.88
2022-08-17T08:15:03.849Z,4.50
2022-08-17T08:17:35.710Z,4.80
2022-08-17T08:20:01.357Z,4.90
2022-08-17T08:23:04.908Z,4.60
2022-08-17T08:25:45.483Z,4.40
2022-08-17T08:28:25.636Z,5.00
2022-08-17T08:30:54.999Z,4.80
2022-08-17T08:33:39.925Z,5.20
2022-08-17T08:37:12.610Z,5.10
2022-08-17T08:39:10.744Z,4.93
2022-08-17T08:41:44.912Z,4.68
2022-08-17T08:45:00.677Z,4.78
2022-08-17T08:47:22.192Z,4.20
2022-08-17T08:50:37.701Z,4.32
2022-08-17T08:53:30.868Z,3.90
2022-08-17T08:56:00.361Z,4.30
2022-08-17T08:58:42.333Z,5.53
2022-08-17T09:01:16.661Z,5.05
2022-08-17T09:04:23.403Z,4.63
2022-08-17T09:07:03.461Z,4.10
2022-08-17T09:09:37.398Z,4.28
2022-08-17T09:12:08.072Z,4.50
2022-08-17T09:14:45.152Z,3.97
2022-08-17T09:17:18.313Z,3.65
2022-08-17T09:19:48.159Z,3.97
2022-08-17T09:22:23.969Z,4.00
2022-08-17T09:24:54.715Z,4.15
2022-08-17T09:27:22.198Z,3.70
2022-08-17T09:29:53.188Z,4.60
2022-08-17T09:32:21.913Z,4.22
2022-08-17T09:34:52.759Z,3.80
2022-08-17T09:37:25.702Z,4.72
2022-08-17T09:40:00.337Z,4.68
2022-08-17T09:42:31.483Z,4.15
2022-08-17T09:45:10.835Z,4.10
2022-08-17T09:47:45.582Z,4.13
2022-08-17T09:50:14.916Z,4.45
2022-08-17T09:52:39.289Z,3.80
2022-08-17T09:55:03.820Z,4.13
2022-08-17T09:57:49.467Z,3.53
2022-08-17T10:00:25.237Z,3.90
2022-08-17T10:03:28.440Z,3.67
2022-08-17T10:05:59.519Z,4.07
2022-08-17T10:08:35.538Z,4.07
2022-08-17T10:11:18.529Z,3.97
2022-08-17T10:13:53.412Z,3.67
2022-08-17T10:16:28.917Z,3.88
2022-08-17T10:19:03.873Z,3.83
2022-08-17T10:21:45.537Z,3.78
2022-08-17T10:24:33.164Z,3.70
2022-08-17T10:27:00.025Z,3.42
2022-08-17T10:29:29.118Z,4.07
2022-08-17T10:32:04.245Z,3.65
2022-08-17T10:35:02.276Z,3.33
2022-08-17T10:37:55.025Z,3.60
2022-08-17T10:40:36.821Z,3.42
2022-08-17T10:43:12.079Z,3.60
2022-08-17T10:45:49.304Z,3.78
2022-08-17T10:48:37.977Z,3.35
2022-08-17T10:51:09.861Z,3.40
2022-08-17T10:54:01.912Z,3.65
2022-08-17T10:56:46.837Z,3.53
2022-08-17T10:59:10.698Z,3.70
2022-08-17T11:02:14.010Z,3.30
2022-08-17T11:05:11.310Z,3.20
2022-08-17T11:07:54.003Z,3.60
2022-08-17T11:10:51.922Z,3.60
2022-08-17T11:13:32.439Z,3.47
2022-08-17T11:16:12.475Z,3.70
2022-08-17T11:19:11.945Z,3.25
2022-08-17T11:22:35.232Z,3.40
2022-08-17T11:25:15.503Z,3.20
2022-08-17T11:27:39.337Z,3.53
2022-08-17T11:30:07.862Z,3.10
2022-08-17T11:32:47.468Z,3.22
2022-08-17T11:35:35.348Z,3.50
2022-08-17T11:38:16.311Z,2.95
2022-08-17T11:41:13.400Z,3.20
2022-08-17T11:44:15.447Z,3.30
2022-08-17T11:47:23.989Z,3.10
2022-08-17T11:50:36.505Z,3.08
2022-08-17T11:53:00.300Z,3.20
2022-08-17T11:56:06.655Z,2.97
2022-08-17T11:58:38.559Z,2.95
2022-08-17T12:01:03.017Z,3.20
2022-08-17T12:03:57.062Z,3.00
2022-08-17T12:06:33.408Z,3.17
2022-08-17T12:09:03.101Z,3.40
2022-08-17T12:12:01.708Z,2.75
2022-08-17T12:14:45.016Z,3.30
2022-08-17T12:17:14.152Z,3.35
2022-08-17T12:19:49.961Z,3.53
2022-08-17T12:22:21.976Z,3.00
2022-08-17T12:24:56.788Z,3.20
2022-08-17T12:27:46.186Z,3.00
2022-08-17T12:30:21.440Z,3.10
2022-08-17T12:32:47.786Z,3.33
2022-08-17T12:35:23.207Z,3.40
2022-08-17T12:37:51.324Z,3.22
2022-08-17T12:40:23.712Z,3.33
2022-08-17T12:42:59.210Z,3.53
2022-08-17T12:45:29.438Z,3.33
2022-08-17T12:48:04.198Z,3.10
2022-08-17T12:50:30.241Z,3.40
2022-08-17T12:52:59.666Z,3.13
2022-08-17T12:55:26.390Z,3.30
2022-08-17T12:57:59.789Z,3.42
2022-08-17T13:00:30.623Z,3.20
2022-08-17T13:03:00.195Z,3.58
2022-08-17T13:05:29.074Z,3.45
2022-08-17T13:07:54.619Z,3.17
2022-08-17T13:10:30.084Z,3.20
2022-08-17T13:12:58.157Z,3.42
2022-08-17T13:15:29.706Z,3.38
2022-08-17T13:18:07.040Z,3.40
2022-08-17T13:20:31.705Z,3.80
2022-08-17T13:22:58.267Z,3.70
2022-08-17T13:25:22.041Z,3.30
2022-08-17T13:27:46.666Z,3.78
2022-08-17T13:30:14.873Z,3.67
2022-08-17T13:32:45.689Z,3.63
2022-08-17T13:35:39.214Z,3.67
2022-08-17T13:38:07.344Z,3.78
2022-08-17T13:40:54.181Z,3.65
2022-08-17T13:43:44.795Z,3.90
2022-08-17T13:46:20.452Z,4.07
2022-08-17T13:48:44.500Z,4.43
2022-08-17T13:51:30.376Z,4.05
2022-08-17T13:54:05.549Z,4.07
2022-08-17T13:56:38.762Z,3.85
2022-08-17T13:59:07.213Z,3.65
2022-08-17T14:01:36.001Z,4.05
2022-08-17T14:04:03.068Z,4.10
2022-08-17T14:06:51.799Z,3.78
2022-08-17T14:09:18.732Z,3.80
2022-08-17T14:11:46.083Z,3.83
2022-08-17T14:14:10.488Z,4.07
2022-08-17T14:16:41.863Z,3.80
2022-08-17T14:19:06.033Z,4.18
2022-08-17T14:21:29.758Z,3.85
2022-08-17T14:23:54.937Z,3.70
2022-08-17T14:26:18.944Z,4.25
2022-08-17T14:28:47.758Z,4.03
2022-08-17T14:31:20.722Z,3.90
2022-08-17T14:33:45.964Z,4.10
2022-08-17T14:36:10.101Z,4.30
2022-08-17T14:38:35.913Z,3.90
2022-08-17T14:40:59.687Z,4.10
2022-08-17T14:43:23.371Z,3.83
2022-08-17T14:45:47.107Z,3.58
2022-08-17T14:48:11.066Z,4.00
2022-08-17T14:50:37.490Z,4.10
2022-08-17T14:53:01.755Z,3.90
2022-08-17T14:55:25.696Z,4.30
2022-08-17T14:57:49.636Z,4.05
2022-08-17T15:00:15.723Z,4.18
2022-08-17T15:02:48.227Z,4.10
2022-08-17T15:05:12.028Z,3.70
2022-08-17T15:07:37.066Z,4.25
2022-08-17T15:10:02.059Z,3.80
2022-08-17T15:12:31.818Z,4.05
2022-08-17T15:14:57.136Z,3.83
2022-08-17T15:17:20.854Z,3.80
2022-08-17T15:19:44.621Z,4.18
2022-08-17T15:22:08.699Z,4.28
2022-08-17T15:24:34.195Z,3.85
2022-08-17T15:26:57.895Z,3.65
2022-08-17T15:29:22.672Z,4.07
2022-08-17T15:31:46.566Z,3.92
2022-08-17T15:34:10.356Z,4.25
2022-08-17T15:36:34.834Z,3.90
2022-08-17T15:38:59.001Z,3.90
2022-08-17T15:41:24.132Z,4.30
2022-08-17T15:43:50.909Z,4.13
2022-08-17T15:46:18.051Z,4.07
2022-08-17T15:48:44.638Z,4.20
2022-08-17T15:51:10.608Z,4.05
2022-08-17T15:53:34.353Z,3.90
2022-08-17T15:55:58.584Z,4.07
2022-08-17T15:58:32.249Z,4.03
2022-08-17T16:01:14.658Z,4.18
2022-08-17T16:03:55.130Z,4.38
2022-08-17T16:06:27.405Z,4.65
2022-08-17T16:08:51.577Z,4.40
2022-08-17T16:11:18.616Z,4.25
2022-08-17T16:13:47.297Z,4.65
2022-08-17T16:16:18.712Z,4.45
2022-08-17T16:18:43.101Z,4.40
2022-08-17T16:21:29.680Z,4.72
2022-08-17T16:23:58.375Z,4.80
2022-08-17T16:26:22.972Z,4.63
2022-08-17T16:28:48.378Z,4.80
2022-08-17T16:31:12.615Z,4.90
2022-08-17T16:33:37.670Z,5.00
2022-08-17T16:36:01.550Z,4.47
2022-08-17T16:38:25.357Z,5.35
2022-08-17T16:40:49.088Z,4.63
2022-08-17T16:43:12.824Z,4.82
2022-08-17T16:45:40.720Z,4.45
2022-08-17T16:48:05.623Z,4.78
2022-08-17T16:50:29.324Z,4.55
2022-08-17T16:52:53.410Z,4.57
2022-08-17T16:55:20.486Z,4.78
2022-08-17T16:57:47.232Z,5.18
2022-08-17T17:00:18.063Z,4.65
2022-08-17T17:02:47.441Z,4.85
2022-08-17T17:05:26.918Z,4.70
2022-08-17T17:08:03.543Z,4.75
2022-08-17T17:10:34.544Z,5.00
2022-08-17T17:13:03.708Z,4.65
2022-08-17T17:15:37.485Z,5.25
2022-08-17T17:18:07.818Z,4.57
2022-08-17T17:20:40.141Z,5.10
2022-08-17T17:23:09.531Z,5.00
2022-08-17T17:25:45.348Z,5.50
2022-08-17T17:28:25.007Z,5.47
2022-08-17T17:31:07.533Z,5.05
2022-08-17T17:33:41.538Z,5.10
2022-08-17T17:36:13.768Z,4.90
2022-08-17T17:38:47.124Z,5.18
2022-08-17T17:41:25.361Z,5.32
2022-08-17T17:43:54.046Z,5.43
2022-08-17T17:46:28.033Z,5.55
2022-08-17T17:48:54.141Z,5.47
2022-08-17T17:51:35.151Z,5.55
2022-08-17T17:54:24.205Z,5.18
2022-08-17T17:57:04.952Z,5.50
2022-08-17T17:59:44.044Z,5.60
2022-08-17T18:02:37.027Z,5.65
2022-08-17T18:05:12.837Z,5.63
2022-08-17T18:07:44.694Z,5.78
2022-08-17T18:10:29.462Z,5.85
2022-08-17T18:13:05.509Z,5.40
2022-08-17T18:15:34.917Z,5.82
2022-08-17T18:18:38.583Z,5.32
2022-08-17T18:21:09.080Z,6.38
2022-08-17T18:23:33.538Z,5.78
2022-08-17T18:25:58.767Z,6.00
2022-08-17T18:28:27.943Z,6.35
2022-08-17T18:31:11.832Z,6.57
2022-08-17T18:33:38.898Z,6.10
2022-08-17T18:36:04.300Z,5.97
2022-08-17T18:38:33.839Z,6.47
2022-08-17T18:41:20.516Z,5.95
2022-08-17T18:43:53.668Z,6.63
2022-08-17T18:46:29.638Z,6.15
2022-08-17T18:48:58.950Z,6.18
2022-08-17T18:51:40.538Z,6.95
2022-08-17T18:54:21.622Z,6.28
2022-08-17T18:56:52.044Z,6.97
2022-08-17T18:59:39.440Z,6.80
2022-08-17T19:02:43.382Z,7.03
2022-08-17T19:05:13.641Z,6.85
2022-08-17T19:07:42.756Z,6.93
2022-08-17T19:10:24.640Z,6.90
2022-08-17T19:12:55.099Z,7.20
2022-08-17T19:15:31.880Z,6.75
2022-08-17T19:18:00.872Z,6.45
2022-08-17T19:20:32.081Z,7.53
2022-08-17T19:23:08.396Z,7.28
2022-08-17T19:25:36.115Z,6.85
2022-08-17T19:28:21.930Z,6.88
2022-08-17T19:30:46.589Z,7.10
2022-08-17T19:33:10.680Z,7.30
2022-08-17T19:35:44.881Z,7.20
2022-08-17T19:38:23.480Z,7.00
2022-08-17T19:41:02.188Z,7.53
2022-08-17T19:43:48.101Z,7.57
2022-08-17T19:46:26.163Z,8.18
2022-08-17T19:49:05.148Z,7.80
2022-08-17T19:51:40.661Z,9.43
2022-08-17T19:54:22.869Z,8.63
2022-08-17T19:56:57.112Z,9.27
2022-08-17T19:59:36.378Z,8.88
2022-08-17T20:02:09.993Z,8.73
2022-08-17T20:04:42.540Z,8.85
2022-08-17T20:07:12.268Z,8.70
2022-08-17T20:09:42.755Z,8.65
2022-08-17T20:12:11.885Z,8.82
2022-08-17T20:14:55.001Z,8.90
2022-08-17T20:17:20.278Z,8.43
2022-08-17T20:19:55.513Z,8.45
2022-08-17T20:22:26.563Z,8.55
2022-08-17T20:25:01.335Z,8.18
2022-08-17T20:27:31.925Z,8.52
2022-08-17T20:30:34.238Z,8.63
2022-08-17T20:32:59.795Z,9.05
2022-08-17T20:35:27.477Z,8.98
2022-08-17T20:37:59.886Z,9.32
2022-08-17T20:40:35.904Z,8.50
2022-08-17T20:43:01.216Z,8.68
2022-08-17T20:46:05.631Z,9.10
2022-08-17T20:48:38.787Z,9.20
2022-08-17T20:51:27.281Z,8.65
2022-08-17T20:54:34.500Z,9.70
2022-08-17T20:57:01.563Z,9.38
2022-08-17T21:00:01.430Z,9.38
2022-08-17T21:02:28.088Z,9.70
2022-08-17T21:05:30.234Z,9.45
2022-08-17T21:07:59.108Z,10.40
2022-08-17T21:10:38.165Z,9.82
2022-08-17T21:13:33.131Z,10.45
2022-08-17T21:16:02.407Z,10.50
2022-08-17T21:18:38.608Z,10.18
2022-08-17T21:21:17.903Z,11.10
2022-08-17T21:24:07.552Z,11.10
2022-08-17T21:26:50.075Z,11.20
2022-08-17T21:29:31.730Z,10.82
2022-08-17T21:32:19.031Z,10.07
2022-08-17T21:34:46.204Z,10.88
2022-08-17T21:37:34.946Z,10.73
2022-08-17T21:40:02.644Z,10.65
2022-08-17T21:42:30.272Z,11.25
2022-08-17T21:45:01.125Z,11.35
2022-08-17T21:47:27.873Z,11.02
2022-08-17T21:49:52.404Z,10.75
2022-08-17T21:52:18.858Z,11.02
2022-08-17T21:54:50.411Z,11.18
2022-08-17T21:57:20.984Z,10.98
2022-08-17T21:59:44.936Z,11.63
2022-08-17T22:02:19.330Z,12.18
2022-08-17T22:04:44.131Z,11.00
2022-08-17T22:07:12.426Z,11.65
2022-08-17T22:09:43.962Z,10.68
2022-08-17T22:12:11.404Z,11.70
2022-08-17T22:14:52.553Z,11.48
2022-08-17T22:17:23.325Z,12.23
2022-08-17T22:19:52.185Z,11.23
2022-08-17T22:23:00.068Z,11.57
2022-08-17T22:25:25.060Z,11.93
2022-08-17T22:27:56.476Z,12.30
2022-08-17T22:30:32.128Z,11.15
2022-08-17T22:32:57.689Z,11.80
2022-08-17T22:35:38.884Z,11.20
2022-08-17T22:38:32.646Z,11.73
2022-08-17T22:41:15.282Z,12.65
2022-08-17T22:43:43.089Z,11.65
2022-08-17T22:46:10.601Z,11.68
2022-08-17T22:48:36.304Z,11.63
2022-08-17T22:51:12.344Z,12.40
2022-08-17T22:53:55.836Z,11.73
2022-08-17T22:56:42.028Z,12.13
2022-08-17T22:59:23.544Z,11.93
2022-08-17T23:02:12.743Z,11.57
2022-08-17T23:04:40.872Z,12.18
2022-08-17T23:07:05.508Z,12.05
2022-08-17T23:09:29.967Z,11.40
2022-08-17T23:11:58.875Z,12.40
2022-08-17T23:14:23.220Z,12.25
2022-08-17T23:16:46.998Z,11.98
2022-08-17T23:19:10.961Z,12.00
2022-08-17T23:21:37.239Z,13.00
2022-08-17T23:24:01.267Z,11.77
2022-08-17T23:26:27.810Z,10.85
2022-08-17T23:28:51.767Z,12.13
2022-08-17T23:31:18.767Z,11.80
2022-08-17T23:33:48.340Z,12.25
2022-08-17T23:36:16.964Z,12.32
2022-08-17T23:38:43.587Z,12.25
2022-08-17T23:41:13.741Z,12.13
2022-08-17T23:43:37.479Z,11.90
2022-08-17T23:46:04.088Z,11.63
2022-08-17T23:48:35.574Z,12.40
2022-08-17T23:51:04.083Z,12.20
2022-08-17T23:53:37.464Z,12.75
2022-08-17T23:56:06.892Z,12.40
2022-08-17T23:58:34.271Z,12.52
